Time;durP1;ratioP1;P1;durP2;ratioP2;P2;SDS_P1;SDS_P2;PMS_P1;PMS_P2;Temp;Humidity;BMP_temperature;BMP_pressure;BME280_temperature;BME280_humidity;BME280_pressure;Samples;Min_cycle;Max_cycle;Signal;HPM_P1;HPM_P2
2023/08/04 00:01:13;;;;;;;1.70;0.80;;;;;;;20.27;90.91;99847.47;5007249;28;20045;-67
2023/08/04 00:03:38;;;;;;;1.02;0.77;;;;;;;20.24;90.43;99855.81;5005154;28;20038;-67
2023/08/04 00:06:10;;;;;;;1.15;0.50;;;;;;;20.26;90.41;99853.38;5010834;28;20069;-67
2023/08/04 00:08:36;;;;;;;2.10;0.93;;;;;;;20.22;90.13;99858.97;5008307;28;20041;-67
2023/08/04 00:11:02;;;;;;;1.08;0.60;;;;;;;20.22;89.68;99863.69;5010786;28;20041;-67
2023/08/04 00:13:30;;;;;;;1.75;0.60;;;;;;;20.18;89.72;99852.06;5008600;28;20029;-67
2023/08/04 00:16:03;;;;;;;1.02;0.68;;;;;;;20.28;89.16;99856.47;5010845;28;20058;-67
2023/08/04 00:18:29;;;;;;;4.72;1.00;;;;;;;20.15;89.50;99859.16;5010724;28;20387;-67
2023/08/04 00:20:54;;;;;;;1.27;0.45;;;;;;;20.26;88.67;99853.38;5014021;28;20088;-67
2023/08/04 00:23:20;;;;;;;2.40;0.77;;;;;;;20.20;89.04;99858.66;5010823;28;20045;-67
2023/08/04 00:25:45;;;;;;;4.25;0.63;;;;;;;20.18;89.36;99868.47;5010291;28;20030;-67
2023/08/04 00:28:10;;;;;;;1.27;0.95;;;;;;;20.23;89.21;99870.66;5008723;28;20041;-66
2023/08/04 00:30:36;;;;;;;0.70;0.60;;;;;;;20.17;89.53;99870.44;5007037;28;20068;-66
2023/08/04 00:33:01;;;;;;;1.30;0.60;;;;;;;20.28;89.04;99879.09;5008019;28;20046;-67
2023/08/04 00:35:27;;;;;;;0.70;0.65;;;;;;;20.36;88.20;99874.19;5009386;28;20125;-67
2023/08/04 00:37:52;;;;;;;1.00;0.65;;;;;;;20.31;88.30;99885.66;5015890;28;20053;-67
2023/08/04 00:40:18;;;;;;;1.98;0.80;;;;;;;20.25;88.64;99887.41;5016280;28;20033;-67
2023/08/04 00:42:43;;;;;;;0.70;0.57;;;;;;;20.27;88.51;99888.50;5012721;28;20726;-67
2023/08/04 00:45:09;;;;;;;0.50;0.40;;;;;;;20.20;88.13;99893.44;4996714;28;20041;-67
2023/08/04 00:47:37;;;;;;;1.80;0.80;;;;;;;20.11;88.63;99896.78;5015013;28;20038;-67
2023/08/04 00:50:04;;;;;;;1.63;1.13;;;;;;;20.13;88.62;99905.31;5008675;28;20402;-67
2023/08/04 00:52:31;;;;;;;1.58;0.93;;;;;;;20.04;89.21;99898.97;4993437;28;20034;-67
2023/08/04 00:54:56;;;;;;;0.70;0.50;;;;;;;19.95;89.59;99899.63;4999375;28;20120;-67
2023/08/04 00:57:22;;;;;;;1.00;0.73;;;;;;;20.02;89.80;99904.88;5009305;28;20109;-67
2023/08/04 00:59:48;;;;;;;3.83;0.65;;;;;;;20.06;89.10;99899.31;5006231;28;20061;-67
2023/08/04 01:02:13;;;;;;;1.95;0.77;;;;;;;19.97;89.70;99904.66;4970801;28;20029;-67
2023/08/04 01:04:39;;;;;;;3.13;0.40;;;;;;;19.91;89.70;99900.94;5014790;28;20033;-67
2023/08/04 01:07:15;;;;;;;1.88;0.68;;;;;;;19.91;89.47;99896.25;4996477;28;20402;-67
2023/08/04 01:09:55;;;;;;;1.02;0.70;;;;;;;19.79;90.00;99913.41;5028600;28;20576;-67
2023/08/04 01:12:31;;;;;;;1.80;0.90;;;;;;;19.68;90.47;99902.78;5011471;28;20041;-67
2023/08/04 01:14:57;;;;;;;2.40;0.77;;;;;;;19.75;90.39;99907.25;5009416;28;20037;-67
2023/08/04 01:17:23;;;;;;;1.52;0.98;;;;;;;19.71;89.98;99912.84;5013159;28;20018;-67
2023/08/04 01:19:48;;;;;;;0.90;0.70;;;;;;;19.52;90.55;99905.59;4995661;28;20107;-67
2023/08/04 01:22:14;;;;;;;1.25;0.63;;;;;;;19.63;90.05;99902.53;5012852;28;20542;-67
2023/08/04 01:24:39;;;;;;;2.15;0.60;;;;;;;19.53;90.49;99909.09;4988840;28;20482;-67
2023/08/04 01:27:06;;;;;;;1.17;0.75;;;;;;;19.62;89.97;99909.22;4995128;28;20071;-67
2023/08/04 01:29:31;;;;;;;2.72;0.60;;;;;;;19.58;89.93;99909.31;5008993;28;20029;-67
2023/08/04 01:31:58;;;;;;;1.70;0.73;;;;;;;19.49;90.20;99916.63;4993397;28;20044;-66
2023/08/04 01:34:24;;;;;;;0.70;0.60;;;;;;;19.52;90.25;99930.16;5004591;28;20107;-67
2023/08/04 01:36:50;;;;;;;0.40;0.40;;;;;;;19.62;89.55;99920.91;5011950;28;20038;-67
2023/08/04 01:39:16;;;;;;;3.17;0.90;;;;;;;19.41;90.23;99924.25;4994497;28;20702;-67
2023/08/04 01:41:41;;;;;;;0.52;0.52;;;;;;;19.31;91.18;99928.00;4992295;28;20026;-66
2023/08/04 01:44:07;;;;;;;1.10;0.68;;;;;;;19.25;91.59;99934.41;5008967;28;20033;-66
2023/08/04 01:46:32;;;;;;;1.05;0.60;;;;;;;19.26;91.63;99941.41;5013833;28;20073;-67
2023/08/04 01:48:58;;;;;;;2.05;0.40;;;;;;;19.13;92.24;99948.75;5009107;28;20030;-66
2023/08/04 01:51:24;;;;;;;0.93;0.70;;;;;;;19.11;92.52;99949.19;5022197;28;20395;-67
2023/08/04 01:53:49;;;;;;;0.77;0.63;;;;;;;19.08;92.31;99952.03;5014577;28;20040;-67
2023/08/04 01:56:15;;;;;;;0.65;0.55;;;;;;;18.99;92.77;99951.88;5016231;28;20494;-67
2023/08/04 01:58:41;;;;;;;1.40;0.82;;;;;;;19.03;92.90;99953.28;4990739;28;20509;-67
2023/08/04 02:01:06;;;;;;;1.30;0.93;;;;;;;18.99;93.64;99958.06;4997421;28;20025;-67
2023/08/04 02:03:33;;;;;;;3.08;0.70;;;;;;;19.03;93.48;99958.00;5014656;28;20486;-67
2023/08/04 02:05:58;;;;;;;1.17;0.88;;;;;;;19.11;93.10;99962.06;5015467;28;20037;-67
2023/08/04 02:08:24;;;;;;;0.80;0.80;;;;;;;19.19;93.12;99977.84;4994835;28;20041;-67
2023/08/04 02:10:50;;;;;;;2.50;0.60;;;;;;;19.25;92.89;99970.69;5008672;28;20773;-67
2023/08/04 02:13:15;;;;;;;0.95;0.65;;;;;;;19.21;93.23;99978.19;4993939;28;20415;-67
2023/08/04 02:15:41;;;;;;;1.02;0.80;;;;;;;19.23;93.54;99978.53;5014319;28;20059;-67
2023/08/04 02:18:06;;;;;;;3.25;0.95;;;;;;;19.32;93.17;99984.16;5017998;28;20036;-67
2023/08/04 02:20:32;;;;;;;1.23;0.70;;;;;;;19.34;92.98;99984.50;5004316;28;20490;-67
2023/08/04 02:22:57;;;;;;;1.85;1.02;;;;;;;19.26;93.74;99996.78;5005697;28;20364;-67
2023/08/04 02:25:23;;;;;;;0.70;0.70;;;;;;;19.34;93.54;99994.66;5010450;28;20121;-67
2023/08/04 02:27:48;;;;;;;0.60;0.55;;;;;;;19.32;93.78;99989.63;4998055;28;20120;-67
2023/08/04 02:30:14;;;;;;;2.67;0.60;;;;;;;19.25;94.59;99992.53;5012110;28;20109;-67
2023/08/04 02:32:40;;;;;;;1.67;0.98;;;;;;;19.30;94.40;99992.00;4996397;28;20094;-67
2023/08/04 02:35:06;;;;;;;2.20;0.80;;;;;;;19.29;94.73;100001.41;5007611;28;20521;-67
2023/08/04 02:37:31;;;;;;;3.85;0.63;;;;;;;19.38;94.42;100006.25;5006757;28;20378;-67
2023/08/04 02:39:57;;;;;;;1.35;0.70;;;;;;;19.38;94.50;100008.97;5027198;28;20041;-67
2023/08/04 02:42:22;;;;;;;2.72;0.80;;;;;;;19.34;94.97;100009.09;5015721;28;20041;-67
2023/08/04 02:44:53;;;;;;;1.00;0.60;;;;;;;19.29;95.97;100014.28;4991642;28;20092;-67
2023/08/04 02:47:18;;;;;;;3.77;1.33;;;;;;;19.29;96.06;100023.25;5009282;28;20391;-67
2023/08/04 02:49:44;;;;;;;2.47;0.77;;;;;;;19.28;95.94;100024.41;5009550;28;20288;-67
2023/08/04 02:52:14;;;;;;;1.00;0.70;;;;;;;19.21;96.12;100027.34;5011437;28;20717;-67
2023/08/04 02:54:43;;;;;;;0.60;0.60;;;;;;;19.16;96.81;100030.59;5008644;28;20103;-67
2023/08/04 02:57:09;;;;;;;1.00;0.70;;;;;;;19.16;96.82;100029.81;5010472;28;20043;-67
2023/08/04 02:59:34;;;;;;;2.55;0.70;;;;;;;19.26;95.94;100037.72;5008251;28;20033;-67
2023/08/04 03:02:00;;;;;;;2.22;0.80;;;;;;;19.18;96.32;100038.34;5006187;28;20037;-67
2023/08/04 03:04:25;;;;;;;2.10;0.75;;;;;;;19.16;97.27;100046.97;5010037;28;20029;-67
2023/08/04 03:06:50;;;;;;;1.30;0.70;;;;;;;19.13;97.21;100042.34;5016888;28;20034;-67
2023/08/04 03:09:16;;;;;;;0.77;0.70;;;;;;;19.13;97.32;100042.34;5011239;28;20049;-67
2023/08/04 03:11:42;;;;;;;2.95;1.13;;;;;;;19.17;97.49;100045.78;4990028;28;20486;-67
2023/08/04 03:14:08;;;;;;;2.13;0.98;;;;;;;19.13;97.66;100042.34;5011743;28;20034;-66
2023/08/04 03:16:33;;;;;;;2.88;0.52;;;;;;;19.20;97.64;100057.81;5020129;28;20037;-67
2023/08/04 03:18:59;;;;;;;6.15;1.00;;;;;;;19.24;97.48;100058.50;5009825;28;20046;-67
2023/08/04 03:21:24;;;;;;;3.25;0.85;;;;;;;19.20;98.12;100063.28;5007998;28;20041;-67
2023/08/04 03:23:49;;;;;;;1.40;0.63;;;;;;;19.21;97.83;100062.06;4989387;28;20192;-67
2023/08/04 03:26:15;;;;;;;0.82;0.65;;;;;;;19.29;97.46;100063.44;5009669;28;20030;-67
2023/08/04 03:28:40;;;;;;;1.02;0.70;;;;;;;19.26;97.63;100061.56;5012086;28;20045;-67
2023/08/04 03:31:06;;;;;;;1.10;0.98;;;;;;;19.26;97.90;100067.78;5010869;28;20030;-67
2023/08/04 03:33:31;;;;;;;1.25;0.90;;;;;;;19.23;97.85;100063.19;5002068;28;20041;-67
2023/08/04 03:35:58;;;;;;;1.45;1.05;;;;;;;19.26;98.05;100062.31;5018190;28;20057;-67
2023/08/04 03:38:24;;;;;;;1.60;0.88;;;;;;;19.29;97.90;100066.16;5010725;28;20091;-67
2023/08/04 03:40:50;;;;;;;1.75;1.20;;;;;;;19.26;97.94;100067.78;5009124;28;20076;-67
2023/08/04 03:43:15;;;;;;;1.13;0.90;;;;;;;19.29;98.22;100077.84;5010206;28;20053;-67
2023/08/04 03:45:41;;;;;;;1.08;0.82;;;;;;;19.29;98.04;100066.94;5007064;28;20072;-67
2023/08/04 03:48:06;;;;;;;1.30;0.80;;;;;;;19.25;98.29;100085.38;5009149;28;20455;-67
2023/08/04 03:50:32;;;;;;;1.13;0.88;;;;;;;19.30;98.14;100075.91;5010605;28;20772;-66
2023/08/04 03:52:57;;;;;;;1.77;0.88;;;;;;;19.38;97.70;100080.00;4979660;28;20048;-67
2023/08/04 03:55:23;;;;;;;1.70;0.77;;;;;;;19.44;96.85;100079.06;5005987;28;20112;-67
2023/08/04 03:57:48;;;;;;;1.33;0.65;;;;;;;19.37;97.34;100078.47;5012496;28;20025;-66
2023/08/04 04:00:14;;;;;;;1.10;1.00;;;;;;;19.32;97.99;100076.22;5010686;28;20045;-66
2023/08/04 04:02:40;;;;;;;4.35;1.05;;;;;;;19.32;98.18;100081.69;5002527;28;20037;-66
2023/08/04 04:05:06;;;;;;;1.05;0.93;;;;;;;19.36;97.73;100080.44;5007408;28;20105;-66
2023/08/04 04:07:31;;;;;;;5.03;1.70;;;;;;;19.40;97.35;100083.06;5008096;28;20038;-66
2023/08/04 04:09:57;;;;;;;2.30;0.85;;;;;;;19.35;98.07;100084.38;5006610;28;20114;-66
2023/08/04 04:12:22;;;;;;;3.63;0.80;;;;;;;19.33;98.49;100083.25;5011278;28;20030;-66
2023/08/04 04:14:47;;;;;;;0.95;0.77;;;;;;;19.31;98.24;100091.09;5021023;28;20061;-66
2023/08/04 04:17:13;;;;;;;1.58;0.80;;;;;;;19.28;98.62;100087.22;5017481;28;20479;-66
2023/08/04 04:19:38;;;;;;;1.90;0.85;;;;;;;19.26;98.97;100097.81;4993045;28;20179;-66
2023/08/04 04:22:04;;;;;;;4.97;0.95;;;;;;;19.28;98.74;100100.88;5016415;28;20466;-66
2023/08/04 04:24:30;;;;;;;2.85;1.60;;;;;;;19.25;99.38;100100.97;4994759;28;20116;-67
2023/08/04 04:26:55;;;;;;;0.80;0.65;;;;;;;19.27;99.40;100109.50;4996338;28;20040;-67
2023/08/04 04:29:20;;;;;;;1.27;1.15;;;;;;;19.28;99.13;100106.34;5018676;28;20034;-67
2023/08/04 04:31:46;;;;;;;1.92;0.90;;;;;;;19.26;99.66;100110.72;5014393;28;20078;-67
2023/08/04 04:34:11;;;;;;;1.70;0.98;;;;;;;19.22;99.80;100110.03;5015429;28;20073;-66
2023/08/04 04:36:37;;;;;;;1.42;1.02;;;;;;;19.27;99.62;100112.25;5011654;28;20148;-67
2023/08/04 04:39:03;;;;;;;1.60;0.75;;;;;;;19.25;99.92;100118.13;5014998;28;20057;-67
2023/08/04 04:41:31;;;;;;;2.28;1.00;;;;;;;19.28;99.93;100113.78;5015060;28;20029;-67
2023/08/04 04:43:57;;;;;;;1.60;0.90;;;;;;;19.29;99.84;100118.81;4996741;28;20026;-67
2023/08/04 04:46:22;;;;;;;1.65;1.20;;;;;;;19.33;99.70;100111.34;5006997;28;20410;-67
2023/08/04 04:48:48;;;;;;;1.60;1.00;;;;;;;19.36;99.81;100120.63;5016168;28;20090;-67
2023/08/04 04:51:13;;;;;;;0.90;0.70;;;;;;;19.39;99.38;100126.03;5013186;28;20147;-67
2023/08/04 04:53:39;;;;;;;1.20;0.77;;;;;;;19.42;99.25;100118.91;5012273;28;20508;-67
2023/08/04 04:56:05;;;;;;;1.63;0.77;;;;;;;19.44;99.07;100128.22;5014409;28;20057;-67
2023/08/04 04:58:30;;;;;;;2.15;1.02;;;;;;;19.43;99.05;100115.00;5012898;28;20045;-67
2023/08/04 05:01:03;;;;;;;1.38;0.93;;;;;;;19.50;98.45;100125.75;5013509;28;20091;-66
2023/08/04 05:03:28;;;;;;;0.95;0.80;;;;;;;19.44;98.48;100132.91;4982636;28;20038;-68
2023/08/04 05:05:53;;;;;;;0.82;0.60;;;;;;;19.42;98.97;100130.63;5014448;28;20029;-66
2023/08/04 05:08:19;;;;;;;1.30;0.50;;;;;;;19.44;98.44;100133.69;5016043;28;20083;-67
2023/08/04 05:10:49;;;;;;;1.98;0.82;;;;;;;19.47;98.77;100143.00;4996452;28;20498;-67
2023/08/04 05:13:15;;;;;;;1.77;1.00;;;;;;;19.51;99.01;100138.97;5014401;28;20040;-67
2023/08/04 05:15:40;;;;;;;0.65;0.63;;;;;;;19.63;98.79;100146.50;5000170;28;20030;-67
2023/08/04 05:18:05;;;;;;;1.10;0.70;;;;;;;19.70;98.81;100145.56;5012116;28;20394;-66
2023/08/04 05:20:31;;;;;;;1.27;0.90;;;;;;;19.76;98.79;100149.31;5015983;28;20038;-70
2023/08/04 05:22:56;;;;;;;1.88;0.88;;;;;;;19.84;98.67;100152.63;4997973;28;20042;-67
2023/08/04 05:25:22;;;;;;;1.38;0.82;;;;;;;19.92;98.07;100159.44;5013033;28;20038;-66
2023/08/04 05:27:50;;;;;;;1.92;1.10;;;;;;;19.82;97.75;100161.25;5012643;28;20491;-68
2023/08/04 05:30:16;;;;;;;9.07;1.10;;;;;;;19.84;97.24;100145.16;5010312;28;20037;-69
2023/08/04 05:32:41;;;;;;;4.43;0.80;;;;;;;19.82;97.18;100142.13;5003517;28;20025;-67
2023/08/04 05:35:09;;;;;;;2.70;1.63;;;;;;;19.87;97.08;100160.72;4993838;28;20457;-66
2023/08/04 05:37:34;;;;;;;0.50;0.50;;;;;;;19.82;96.94;100157.75;4999954;28;20096;-67
2023/08/04 05:40:00;;;;;;;0.80;0.70;;;;;;;19.80;97.55;100167.13;5011285;28;20033;-68
2023/08/04 05:42:25;;;;;;;1.42;0.88;;;;;;;19.86;96.81;100169.38;4994824;28;20073;-68
2023/08/04 05:44:51;;;;;;;4.55;1.08;;;;;;;19.92;96.99;100168.41;5011278;28;20091;-66
2023/08/04 05:47:17;;;;;;;3.67;1.05;;;;;;;19.99;96.52;100162.75;5008868;28;20077;-70
2023/08/04 05:49:45;;;;;;;4.03;1.00;;;;;;;20.02;96.38;100178.28;4993449;28;20026;-67
2023/08/04 05:52:11;;;;;;;4.07;1.02;;;;;;;20.04;96.29;100173.16;5009443;28;20053;-69
2023/08/04 05:54:36;;;;;;;1.27;0.70;;;;;;;19.98;96.32;100179.56;5044111;22;20465;-61
2023/08/04 05:57:02;;;;;;;2.58;1.00;;;;;;;20.07;96.34;100183.25;5045214;28;20438;-63
2023/08/04 05:59:27;;;;;;;0.95;0.73;;;;;;;20.04;95.85;100186.84;5049608;28;20040;-63
2023/08/04 06:01:53;;;;;;;2.58;1.00;;;;;;;20.11;95.98;100188.63;5044871;28;20116;-62
2023/08/04 06:04:19;;;;;;;2.58;0.57;;;;;;;20.11;96.40;100197.59;5039311;28;20057;-62
2023/08/04 06:06:44;;;;;;;2.97;0.73;;;;;;;20.23;96.41;100196.13;5042161;28;20546;-64
2023/08/04 06:09:10;;;;;;;0.60;0.50;;;;;;;20.37;95.92;100198.50;5032907;28;20748;-64
2023/08/04 06:11:35;;;;;;;6.43;0.80;;;;;;;20.60;94.54;100190.03;5033247;28;20026;-62
2023/08/04 06:14:01;;;;;;;0.85;0.68;;;;;;;20.64;94.78;100196.19;5040568;28;20041;-65
2023/08/04 06:16:26;;;;;;;0.90;0.60;;;;;;;20.59;94.70;100194.00;5039194;28;20072;-65
2023/08/04 06:18:51;;;;;;;2.60;0.70;;;;;;;20.55;94.53;100204.25;5039758;28;20108;-65
2023/08/04 06:21:17;;;;;;;1.48;0.88;;;;;;;20.60;93.95;100196.28;5041044;28;20037;-63
2023/08/04 06:23:45;;;;;;;0.95;0.60;;;;;;;;;;5043388;28;20032;-65
2023/08/04 06:26:31;;;;;;;0.90;0.75;;;;;;;20.48;93.58;100207.94;5043128;28;20087;-65
2023/08/04 06:28:57;;;;;;;1.05;0.68;;;;;;;20.40;93.71;100203.88;4942296;29;20047;-65
2023/08/04 06:31:22;;;;;;;1.65;0.68;;;;;;;20.42;94.04;100214.41;4946394;29;20046;-64
2023/08/04 06:33:48;;;;;;;1.35;0.60;;;;;;;20.50;93.38;100218.47;4941629;28;20047;-63
2023/08/04 06:36:13;;;;;;;2.50;0.52;;;;;;;20.43;93.55;100226.88;4945712;28;20050;-64
2023/08/04 06:38:39;;;;;;;0.73;0.50;;;;;;;20.41;93.81;100221.84;4945303;29;20035;-65
2023/08/04 06:41:04;;;;;;;0.75;0.70;;;;;;;20.47;92.89;100233.00;4943731;28;20126;-64
2023/08/04 06:43:30;;;;;;;0.75;0.60;;;;;;;20.53;93.23;100228.56;4943679;28;20039;-62
2023/08/04 06:46:15;;;;;;;0.50;0.50;;;;;;;20.61;92.34;100224.44;4949777;28;20043;-65
2023/08/04 06:48:41;;;;;;;3.38;0.88;;;;;;;20.74;91.74;100238.91;4870251;29;21373;-63
2023/08/04 06:51:06;;;;;;;1.63;0.60;;;;;;;20.64;92.02;100245.44;4871468;29;20049;-64
2023/08/04 06:53:32;;;;;;;1.02;0.68;;;;;;;20.66;92.37;100245.78;4871592;29;20037;-65
2023/08/04 06:55:57;;;;;;;0.85;0.65;;;;;;;20.69;92.04;100259.38;4872331;29;20049;-65
2023/08/04 06:58:22;;;;;;;0.80;0.57;;;;;;;20.65;92.22;100247.75;4868976;29;20037;-63
2023/08/04 07:00:48;;;;;;;1.23;0.80;;;;;;;20.72;92.17;100262.44;4864596;29;20051;-62
2023/08/04 07:03:14;;;;;;;0.95;0.70;;;;;;;20.80;91.44;100255.56;4856694;29;20037;-65
2023/08/04 07:05:39;;;;;;;0.77;0.60;;;;;;;20.77;91.86;100250.97;4897813;29;20031;-65
2023/08/04 07:08:05;;;;;;;0.63;0.60;;;;;;;20.81;91.36;100263.34;4946998;29;20046;-64
2023/08/04 07:10:34;;;;;;;1.00;0.50;;;;;;;20.72;91.88;100265.94;4944639;28;20049;-65
2023/08/04 07:13:00;;;;;;;0.50;0.40;;;;;;;20.78;91.49;100269.69;4946394;29;20619;-65
2023/08/04 07:15:25;;;;;;;2.80;0.82;;;;;;;20.76;91.59;100272.09;4947688;29;20064;-63
2023/08/04 07:17:50;;;;;;;1.48;0.60;;;;;;;20.74;91.06;100281.94;4943801;29;20545;-64
2023/08/04 07:20:16;;;;;;;3.15;0.63;;;;;;;20.69;91.27;100278.53;4942809;29;20138;-65
2023/08/04 07:22:41;;;;;;;0.93;0.60;;;;;;;20.69;91.18;100286.75;4944273;28;20047;-63
2023/08/04 07:25:07;;;;;;;0.50;0.50;;;;;;;20.68;91.37;100277.00;4970750;28;20104;-64
2023/08/04 07:27:32;;;;;;;1.17;0.52;;;;;;;20.78;91.16;100268.94;5035186;28;20085;-65
2023/08/04 07:29:58;;;;;;;1.08;0.70;;;;;;;20.87;91.78;100280.78;5021279;28;20024;-64
2023/08/04 07:32:23;;;;;;;0.98;0.55;;;;;;;20.92;90.83;100274.78;5032736;28;20056;-62
2023/08/04 07:34:49;;;;;;;2.42;1.55;;;;;;;21.01;90.56;100272.19;5027643;28;20040;-64
2023/08/04 07:37:15;;;;;;;0.70;0.70;;;;;;;21.09;90.39;100278.25;5013241;28;20056;-64
2023/08/04 07:39:40;;;;;;;2.45;0.75;;;;;;;21.11;90.67;100278.56;5026542;28;20037;-64
2023/08/04 07:42:06;;;;;;;0.57;0.52;;;;;;;21.25;90.15;100278.91;5036010;28;20096;-65
2023/08/04 07:44:34;;;;;;;0.88;0.68;;;;;;;21.45;89.53;100282.25;5034515;28;20638;-65
2023/08/04 07:46:59;;;;;;;2.33;0.73;;;;;;;21.42;89.61;100282.34;5048620;28;20124;-65
2023/08/04 07:49:25;;;;;;;0.60;0.52;;;;;;;21.39;89.41;100283.97;5030814;28;20111;-65
2023/08/04 07:51:50;;;;;;;1.02;0.70;;;;;;;21.49;88.82;100293.09;5049018;28;20123;-62
2023/08/04 07:54:16;;;;;;;0.90;0.60;;;;;;;21.54;88.77;100301.53;5019178;28;20036;-65
2023/08/04 07:56:41;;;;;;;1.17;0.80;;;;;;;21.71;87.45;100294.00;5034303;28;20025;-64
2023/08/04 07:59:27;;;;;;;0.93;0.75;;;;;;;21.83;86.79;100301.47;5022237;28;20048;-63
2023/08/04 08:01:52;;;;;;;2.63;0.68;;;;;;;21.84;86.54;100296.75;4965061;28;20138;-64
2023/08/04 08:04:18;;;;;;;1.95;0.57;;;;;;;21.90;86.03;100305.94;4965058;28;20137;-64
2023/08/04 08:06:43;;;;;;;7.00;0.68;;;;;;;22.09;85.40;100307.69;4967429;28;20082;-64
2023/08/04 08:09:11;;;;;;;2.33;0.70;;;;;;;22.16;84.99;100307.47;4969741;28;20030;-62
2023/08/04 08:11:36;;;;;;;0.52;0.40;;;;;;;22.09;84.99;100310.44;4940445;28;20043;-64
2023/08/04 08:14:02;;;;;;;0.40;0.40;;;;;;;22.17;84.10;100312.50;4964590;28;20157;-64
2023/08/04 08:16:27;;;;;;;0.63;0.55;;;;;;;22.10;84.36;100318.25;4967681;28;20587;-63
2023/08/04 08:18:53;;;;;;;0.35;0.35;;;;;;;22.09;84.37;100313.16;4969033;28;20057;-64
2023/08/04 08:21:18;;;;;;;0.93;0.60;;;;;;;22.09;84.56;100315.91;4970890;28;20044;-64
2023/08/04 08:23:44;;;;;;;2.25;0.50;;;;;;;22.18;83.97;100316.78;4967756;28;20030;-64
2023/08/04 08:26:09;;;;;;;0.95;0.70;;;;;;;22.24;83.69;100317.75;4967616;28;20043;-63
2023/08/04 08:28:35;;;;;;;8.50;0.93;;;;;;;22.36;82.67;100321.69;4948410;28;20034;-64
2023/08/04 08:31:00;;;;;;;1.75;0.40;;;;;;;22.39;82.51;100329.81;4978371;28;20469;-63
2023/08/04 08:33:26;;;;;;;1.20;0.52;;;;;;;22.34;82.33;100324.09;4953993;28;20070;-64
2023/08/04 08:35:52;;;;;;;0.60;0.40;;;;;;;22.45;80.65;100325.28;4954076;28;20043;-62
2023/08/04 08:38:17;;;;;;;0.60;0.50;;;;;;;22.38;80.86;100331.03;4983498;28;20518;-64
2023/08/04 08:40:43;;;;;;;3.78;0.50;;;;;;;22.46;80.46;100334.28;5040138;28;20473;-64
2023/08/04 08:43:09;;;;;;;0.32;0.30;;;;;;;22.51;79.43;100331.00;5034826;28;20028;-64
2023/08/04 08:45:36;;;;;;;1.60;0.38;;;;;;;22.37;78.39;100340.47;5038951;28;20067;-63
2023/08/04 08:48:02;;;;;;;3.22;0.32;;;;;;;22.37;78.52;100339.69;5024796;28;20051;-65
2023/08/04 08:50:27;;;;;;;0.60;0.45;;;;;;;22.35;78.21;100340.16;5036543;28;20045;-64
2023/08/04 08:53:03;;;;;;;0.55;0.50;;;;;;;22.30;77.45;100346.19;5037428;28;20438;-64
2023/08/04 08:55:30;;;;;;;0.40;0.40;;;;;;;22.23;77.85;100348.38;5035249;28;20389;-64
2023/08/04 08:57:58;;;;;;;0.30;0.30;;;;;;;22.21;78.41;100345.31;5038631;28;20065;-64
2023/08/04 09:00:24;;;;;;;0.40;0.40;;;;;;;22.02;79.37;100343.59;5040780;28;20021;-65
2023/08/04 09:02:50;;;;;;;0.50;0.28;;;;;;;22.10;79.79;100342.16;5039997;28;20108;-62
2023/08/04 09:05:36;;;;;;;1.27;0.40;;;;;;;22.00;80.30;100357.75;5027073;28;20067;-61
2023/08/04 09:08:02;;;;;;;0.70;0.55;;;;;;;22.07;80.10;100359.47;4945789;29;20138;-63
2023/08/04 09:10:28;;;;;;;1.27;0.55;;;;;;;22.06;80.60;100366.19;4945605;29;20051;-65
2023/08/04 09:12:55;;;;;;;0.60;0.50;;;;;;;22.01;81.69;100385.94;4946669;29;20039;-64
2023/08/04 09:15:33;;;;;;;0.30;0.20;;;;;;;21.93;82.52;100398.34;4946498;29;20039;-64
2023/08/04 09:17:58;;;;;;;0.17;0.17;;;;;;;21.77;83.69;100390.16;4949627;29;20038;-65
2023/08/04 09:20:28;;;;;;;0.52;0.40;;;;;;;21.54;84.99;100394.72;4926830;29;20043;-64
2023/08/04 09:22:54;;;;;;;0.20;0.20;;;;;;;21.28;86.25;100395.09;4947667;29;20047;-64
2023/08/04 09:25:20;;;;;;;0.20;0.20;;;;;;;21.13;88.08;100386.50;4936845;28;20450;-63
2023/08/04 09:27:49;;;;;;;0.38;0.28;;;;;;;21.08;88.54;100395.25;4944277;29;20039;-64
2023/08/04 09:30:18;;;;;;;0.32;0.28;;;;;;;21.02;89.33;100393.47;4938467;29;20553;-64
2023/08/04 09:32:49;;;;;;;0.85;0.30;;;;;;;21.07;89.57;100384.72;4940727;29;20055;-63
2023/08/04 09:35:15;;;;;;;0.20;0.10;;;;;;;20.96;89.95;100384.22;4944577;29;20059;-65
2023/08/04 09:37:41;;;;;;;0.30;0.20;;;;;;;20.97;90.90;100388.47;4948282;29;20043;-65
2023/08/04 09:40:15;;;;;;;0.40;0.38;;;;;;;21.02;92.00;100385.25;4921286;29;20057;-64
2023/08/04 09:42:42;;;;;;;0.25;0.25;;;;;;;21.11;92.40;100386.19;4943214;29;20081;-62
2023/08/04 09:45:28;;;;;;;0.22;0.22;;;;;;;21.33;92.48;100392.59;4992223;28;20052;-62
2023/08/04 09:47:53;;;;;;;0.38;0.22;;;;;;;21.72;91.67;100401.69;4960603;28;20079;-65
2023/08/04 09:50:19;;;;;;;0.20;0.20;;;;;;;22.06;91.20;100401.84;4960295;28;20050;-65
2023/08/04 09:52:45;;;;;;;0.20;0.20;;;;;;;22.27;91.73;100399.22;4936820;28;20512;-63
2023/08/04 09:55:11;;;;;;;0.10;0.10;;;;;;;22.52;90.88;100395.66;4957321;28;20173;-61
2023/08/04 09:57:38;;;;;;;0.88;0.50;;;;;;;22.89;90.07;100394.06;4961494;28;20635;-64
2023/08/04 10:00:11;;;;;;;5.82;0.25;;;;;;;23.21;89.48;100393.69;4956295;28;20538;-64
2023/08/04 10:02:37;;;;;;;0.30;0.30;;;;;;;23.47;87.93;100397.13;4958289;28;20043;-62
2023/08/04 10:05:04;;;;;;;0.75;0.38;;;;;;;23.76;88.27;100394.84;4958114;28;20050;-65
2023/08/04 10:07:33;;;;;;;0.85;0.40;;;;;;;23.93;86.91;100404.41;4953673;28;20031;-62
2023/08/04 10:10:00;;;;;;;0.73;0.28;;;;;;;23.98;84.88;100399.06;4954257;28;20177;-62
2023/08/04 10:12:27;;;;;;;0.20;0.20;;;;;;;24.24;84.01;100405.16;4937932;28;20082;-65
2023/08/04 10:14:53;;;;;;;0.40;0.40;;;;;;;24.71;82.48;100404.81;4955306;28;20030;-65
2023/08/04 10:17:19;;;;;;;2.70;0.30;;;;;;;25.00;80.04;100422.50;4961132;28;20031;-65
2023/08/04 10:19:44;;;;;;;0.30;0.30;;;;;;;25.13;77.44;100408.53;4956900;28;20081;-65
2023/08/04 10:22:11;;;;;;;0.85;0.30;;;;;;;25.20;75.02;100418.50;4950413;28;20043;-64
2023/08/04 10:24:40;;;;;;;0.75;0.30;;;;;;;25.19;74.31;100414.97;4990320;28;20041;-66
2023/08/04 10:27:19;;;;;;;1.63;0.60;;;;;;;25.07;72.69;100412.41;5045453;28;20394;-65
2023/08/04 10:29:45;;;;;;;0.70;0.30;;;;;;;25.03;72.84;100421.56;5035955;28;20423;-65
2023/08/04 10:32:10;;;;;;;0.95;0.40;;;;;;;25.20;72.69;100416.53;5034231;28;20032;-65
2023/08/04 10:34:44;;;;;;;1.75;0.40;;;;;;;25.13;71.75;100418.81;5029422;28;20539;-63
2023/08/04 10:37:12;;;;;;;0.40;0.40;;;;;;;25.10;72.20;100419.72;5033898;28;20037;-63
2023/08/04 10:39:44;;;;;;;0.30;0.30;;;;;;;24.96;72.37;100434.88;5042743;28;20085;-65
2023/08/04 10:42:12;;;;;;;0.35;0.35;;;;;;;24.71;72.22;100427.63;5044840;28;20036;-65
2023/08/04 10:44:47;;;;;;;0.30;0.30;;;;;;;24.50;72.33;100423.00;5021599;28;20060;-65
2023/08/04 10:47:13;;;;;;;0.47;0.40;;;;;;;24.49;71.14;100429.72;5039050;28;20071;-63
2023/08/04 10:49:38;;;;;;;1.10;0.52;;;;;;;24.23;72.01;100433.16;5026703;28;20025;-65
2023/08/04 10:52:04;;;;;;;3.42;0.70;;;;;;;24.07;73.46;100431.41;5035022;28;20377;-63
2023/08/04 10:54:30;;;;;;;2.17;0.30;;;;;;;23.98;73.75;100423.09;5034203;28;20036;-65
2023/08/04 10:56:55;;;;;;;1.48;0.57;;;;;;;24.06;72.98;100429.91;5040328;28;20454;-64
2023/08/04 10:59:20;;;;;;;0.25;0.25;;;;;;;24.01;72.47;100433.97;5027703;28;20057;-63
2023/08/04 11:01:47;;;;;;;0.65;0.20;;;;;;;24.01;73.08;100439.47;5039940;28;20086;-63
2023/08/04 11:04:18;;;;;;;0.20;0.20;;;;;;;23.98;72.86;100431.34;5039991;28;20030;-63
2023/08/04 11:06:47;;;;;;;0.20;0.20;;;;;;;23.85;73.88;100434.19;5034407;28;20056;-64
2023/08/04 11:09:13;;;;;;;0.40;0.40;;;;;;;23.98;73.20;100439.59;5037359;28;20060;-65
2023/08/04 11:11:39;;;;;;;0.30;0.30;;;;;;;24.02;72.69;100443.03;5019163;28;20475;-64
2023/08/04 11:14:08;;;;;;;0.50;0.30;;;;;;;23.98;73.08;100432.09;5040541;28;20025;-65
2023/08/04 11:16:36;;;;;;;0.40;0.28;;;;;;;24.07;72.58;100432.19;5037597;28;20388;-64
2023/08/04 11:19:08;;;;;;;1.13;0.25;;;;;;;24.00;72.25;100439.91;5040112;28;20533;-63
2023/08/04 11:21:34;;;;;;;0.28;0.20;;;;;;;24.12;71.45;100439.06;5009292;28;20029;-63
2023/08/04 11:23:59;;;;;;;0.40;0.30;;;;;;;24.17;70.79;100442.03;5042023;28;20035;-64